createdAt,value
2022-08-14T00:01:58.414Z,18.40
2022-08-14T00:04:34.410Z,17.27
2022-08-14T00:07:10.139Z,17.87
2022-08-14T00:09:56.048Z,17.10
2022-08-14T00:12:33.447Z,17.33
2022-08-14T00:15:24.053Z,17.50
2022-08-14T00:17:53.358Z,20.53
2022-08-14T00:20:30.759Z,20.50
2022-08-14T00:23:12.035Z,16.77
2022-08-14T00:25:41.998Z,19.03
2022-08-14T00:28:15.598Z,17.87
2022-08-14T00:30:48.499Z,18.40
2022-08-14T00:33:16.902Z,18.20
2022-08-14T00:36:36.359Z,18.23
2022-08-14T00:38:34.791Z,19.67
2022-08-14T00:41:11.038Z,17.90
2022-08-14T00:43:38.353Z,17.00
2022-08-14T00:46:30.155Z,17.40
2022-08-14T00:48:58.296Z,17.03
2022-08-14T00:51:34.769Z,17.03
2022-08-14T00:54:17.049Z,17.67
2022-08-14T00:56:50.538Z,18.03
2022-08-14T00:59:17.769Z,16.87
2022-08-14T01:01:45.978Z,17.60
2022-08-14T01:04:51.313Z,15.70
2022-08-14T01:07:04.830Z,17.40
2022-08-14T01:09:37.161Z,15.73
2022-08-14T01:12:06.151Z,17.17
2022-08-14T01:14:35.862Z,17.23
2022-08-14T01:17:04.093Z,17.00
2022-08-14T01:19:50.036Z,16.40
2022-08-14T01:22:20.725Z,17.20
2022-08-14T01:24:54.580Z,16.00
2022-08-14T01:27:25.544Z,16.40
2022-08-14T01:30:01.275Z,16.40
2022-08-14T01:32:42.676Z,16.07
2022-08-14T01:35:20.487Z,17.90
2022-08-14T01:37:58.077Z,16.27
2022-08-14T01:40:36.253Z,13.37
2022-08-14T01:43:18.517Z,15.33
2022-08-14T01:45:57.986Z,15.17
2022-08-14T01:48:37.112Z,15.40
2022-08-14T01:51:19.104Z,14.27
2022-08-14T01:53:54.929Z,16.10
2022-08-14T01:56:37.357Z,14.17
2022-08-14T01:59:20.085Z,14.57
2022-08-14T02:01:51.501Z,14.33
2022-08-14T02:04:56.183Z,16.00
2022-08-14T02:07:27.254Z,14.40
2022-08-14T02:10:12.907Z,14.27
2022-08-14T02:12:49.029Z,14.57
2022-08-14T02:15:21.853Z,15.53
2022-08-14T02:17:50.246Z,14.77
2022-08-14T02:20:20.519Z,14.73
2022-08-14T02:22:55.039Z,14.13
2022-08-14T02:25:22.875Z,15.33
2022-08-14T02:28:25.368Z,15.03
2022-08-14T02:30:38.276Z,14.60
2022-08-14T02:33:07.601Z,17.07
2022-08-14T02:35:52.790Z,16.13
2022-08-14T02:38:27.081Z,13.73
2022-08-14T02:41:01.387Z,15.10
2022-08-14T02:43:36.462Z,13.83
2022-08-14T02:46:06.333Z,15.47
2022-08-14T02:49:03.985Z,13.37
2022-08-14T02:51:36.968Z,14.40
2022-08-14T02:54:08.384Z,13.27
2022-08-14T02:57:13.871Z,13.63
2022-08-14T02:59:33.857Z,15.80
2022-08-14T03:02:02.274Z,15.00
2022-08-14T03:04:30.511Z,15.73
2022-08-14T03:07:07.675Z,13.90
2022-08-14T03:10:25.253Z,13.83
2022-08-14T03:12:31.182Z,14.40
2022-08-14T03:14:59.512Z,15.40
2022-08-14T03:17:32.069Z,14.70
2022-08-14T03:20:14.684Z,17.97
2022-08-14T03:22:44.655Z,17.73
2022-08-14T03:25:17.889Z,15.60
2022-08-14T03:27:48.601Z,15.63
2022-08-14T03:30:39.756Z,15.10
2022-08-14T03:33:11.081Z,15.37
2022-08-14T03:36:05.319Z,15.47
2022-08-14T03:39:15.589Z,15.50
2022-08-14T03:41:23.099Z,16.83
2022-08-14T03:45:15.668Z,17.07
2022-08-14T03:46:54.667Z,13.70
2022-08-14T03:49:28.589Z,16.80
2022-08-14T03:52:01.131Z,14.57
2022-08-14T03:54:29.175Z,15.13
2022-08-14T03:57:02.542Z,16.07
2022-08-14T03:59:30.848Z,15.90
2022-08-14T04:02:01.707Z,16.70
2022-08-14T04:04:32.223Z,17.03
2022-08-14T04:07:01.053Z,16.30
2022-08-14T04:09:29.383Z,19.60
2022-08-14T04:11:58.299Z,15.57
2022-08-14T04:14:26.499Z,18.27
2022-08-14T04:16:53.231Z,16.73
2022-08-14T04:19:23.973Z,17.00
2022-08-14T04:22:03.566Z,17.67
2022-08-14T04:24:38.426Z,13.77
2022-08-14T04:27:10.161Z,15.90
2022-08-14T04:29:42.623Z,15.40
2022-08-14T04:32:58.749Z,14.80
2022-08-14T04:34:59.943Z,20.00
2022-08-14T04:37:45.851Z,16.83
2022-08-14T04:40:35.367Z,14.80
2022-08-14T04:43:25.883Z,13.67
2022-08-14T04:45:53.516Z,14.30
2022-08-14T04:48:38.934Z,15.43
2022-08-14T04:51:11.063Z,15.57
2022-08-14T04:53:43.655Z,15.60
2022-08-14T04:56:33.797Z,16.77
2022-08-14T04:59:10.100Z,14.83
2022-08-14T05:01:40.439Z,15.07
2022-08-14T05:04:14.566Z,14.73
2022-08-14T05:06:43.034Z,15.57
2022-08-14T05:09:14.059Z,14.67
2022-08-14T05:11:41.254Z,15.63
2022-08-14T05:14:33.736Z,14.27
2022-08-14T05:17:01.608Z,15.80
2022-08-14T05:19:31.986Z,14.80
2022-08-14T05:22:17.421Z,12.30
2022-08-14T05:24:51.203Z,14.50
2022-08-14T05:27:23.163Z,13.87
2022-08-14T05:29:58.019Z,13.80
2022-08-14T05:32:27.909Z,13.77
2022-08-14T05:35:04.413Z,13.67
2022-08-14T05:37:31.392Z,13.77
2022-08-14T05:40:01.254Z,13.27
2022-08-14T05:42:29.342Z,13.20
2022-08-14T05:44:59.161Z,14.57
2022-08-14T05:47:28.622Z,13.50
2022-08-14T05:50:01.925Z,14.97
2022-08-14T05:52:38.303Z,15.27
2022-08-14T05:55:09.417Z,12.97
2022-08-14T05:57:50.170Z,14.80
2022-08-14T06:00:28.202Z,12.80
2022-08-14T06:02:56.744Z,13.53
2022-08-14T06:05:24.609Z,13.90
2022-08-14T06:07:57.420Z,13.23
2022-08-14T06:10:24.523Z,13.30
2022-08-14T06:12:56.500Z,13.23
2022-08-14T06:15:29.976Z,10.70
2022-08-14T06:17:59.250Z,14.57
2022-08-14T06:20:28.388Z,12.17
2022-08-14T06:22:56.272Z,13.20
2022-08-14T06:25:23.871Z,10.30
2022-08-14T06:27:52.301Z,12.73
2022-08-14T06:30:23.847Z,10.50
2022-08-14T06:32:57.890Z,13.00
2022-08-14T06:35:25.359Z,13.13
2022-08-14T06:37:58.704Z,12.03
2022-08-14T06:40:34.624Z,13.10
2022-08-14T06:43:11.514Z,12.30
2022-08-14T06:45:44.049Z,12.83
2022-08-14T06:48:26.346Z,13.43
2022-08-14T06:50:57.914Z,12.10
2022-08-14T06:53:28.152Z,13.50
2022-08-14T06:56:00.773Z,13.20
2022-08-14T06:58:32.144Z,13.70
2022-08-14T07:01:25.123Z,14.23
2022-08-14T07:04:23.945Z,15.60
2022-08-14T07:06:58.997Z,15.50
2022-08-14T07:09:28.261Z,14.70
2022-08-14T07:12:55.111Z,16.50
2022-08-14T07:15:01.459Z,19.53
2022-08-14T07:17:28.712Z,18.27
2022-08-14T07:19:59.161Z,14.37
2022-08-14T07:22:33.056Z,16.47
2022-08-14T07:25:14.652Z,13.87
2022-08-14T07:27:42.701Z,12.40
2022-08-14T07:30:33.395Z,13.40
2022-08-14T07:32:57.891Z,13.83
2022-08-14T07:35:24.680Z,13.33
2022-08-14T07:37:57.536Z,13.10
2022-08-14T07:40:27.404Z,13.40
2022-08-14T07:42:56.025Z,13.30
2022-08-14T07:45:23.253Z,14.43
2022-08-14T07:47:52.198Z,13.33
2022-08-14T07:50:21.362Z,12.27
2022-08-14T07:52:50.737Z,12.97
2022-08-14T07:55:21.115Z,14.17
2022-08-14T07:57:51.887Z,14.67
2022-08-14T08:00:30.848Z,14.53
2022-08-14T08:03:00.617Z,12.10
2022-08-14T08:05:28.003Z,14.70
2022-08-14T08:07:55.481Z,13.80
2022-08-14T08:10:57.122Z,12.90
2022-08-14T08:13:24.138Z,15.13
2022-08-14T08:15:53.946Z,15.67
2022-08-14T08:18:29.139Z,12.63
2022-08-14T08:20:59.227Z,14.97
2022-08-14T08:23:30.980Z,13.00
2022-08-14T08:26:08.347Z,15.07
2022-08-14T08:28:36.759Z,14.80
2022-08-14T08:31:06.921Z,13.77
2022-08-14T08:33:37.780Z,13.10
2022-08-14T08:36:12.791Z,13.57
2022-08-14T08:39:16.287Z,12.27
2022-08-14T08:41:50.577Z,11.80
2022-08-14T08:44:32.531Z,12.23
2022-08-14T08:47:08.443Z,11.27
2022-08-14T08:49:48.778Z,11.23
2022-08-14T08:52:31.313Z,11.10
2022-08-14T08:54:59.383Z,13.63
2022-08-14T08:57:27.714Z,11.30
2022-08-14T08:59:55.024Z,12.43
2022-08-14T09:02:27.389Z,12.50
2022-08-14T09:05:02.283Z,13.10
2022-08-14T09:07:29.131Z,11.43
2022-08-14T09:09:59.445Z,11.53
2022-08-14T09:12:35.282Z,12.20
2022-08-14T09:15:12.309Z,13.07
2022-08-14T09:17:42.366Z,13.33
2022-08-14T09:20:12.938Z,12.87
2022-08-14T09:22:48.331Z,11.90
2022-08-14T09:25:19.608Z,13.77
2022-08-14T09:27:47.394Z,12.83
2022-08-14T09:30:33.183Z,21.00
2022-08-14T09:33:12.512Z,15.60
2022-08-14T09:35:58.003Z,13.93
2022-08-14T09:38:54.343Z,16.67
2022-08-14T09:42:20.187Z,14.80
2022-08-14T09:45:07.839Z,12.73
2022-08-14T09:47:52.199Z,15.07
2022-08-14T09:50:33.375Z,12.67
2022-08-14T09:53:04.517Z,11.97
2022-08-14T09:55:42.546Z,12.27
2022-08-14T09:58:19.625Z,11.00
2022-08-14T10:01:00.992Z,12.20
2022-08-14T10:03:33.470Z,11.60
2022-08-14T10:06:17.433Z,10.30
2022-08-14T10:09:00.443Z,10.63
2022-08-14T10:11:36.104Z,11.90
2022-08-14T10:14:29.374Z,12.50
2022-08-14T10:17:06.221Z,12.37
2022-08-14T10:19:37.021Z,13.53
2022-08-14T10:23:13.222Z,12.40
2022-08-14T10:24:56.647Z,13.30
2022-08-14T10:27:26.679Z,12.80
2022-08-14T10:30:04.704Z,13.80
2022-08-14T10:32:51.455Z,12.30
2022-08-14T10:35:22.507Z,15.57
2022-08-14T10:37:54.711Z,16.00
2022-08-14T10:40:38.409Z,14.50
2022-08-14T10:43:31.880Z,15.33
2022-08-14T10:46:21.679Z,15.63
2022-08-14T10:48:58.421Z,15.23
2022-08-14T10:51:30.038Z,15.67
2022-08-14T10:54:16.801Z,16.20
2022-08-14T10:56:56.118Z,15.90
2022-08-14T10:59:30.761Z,16.43
2022-08-14T11:01:59.891Z,17.03
2022-08-14T11:04:30.773Z,17.30
2022-08-14T11:06:58.253Z,15.70
2022-08-14T11:09:25.923Z,12.27
2022-08-14T11:12:34.047Z,15.63
2022-08-14T11:14:59.338Z,13.57
2022-08-14T11:17:36.214Z,11.10
2022-08-14T11:20:06.583Z,10.93
2022-08-14T11:22:52.888Z,13.07
2022-08-14T11:25:43.858Z,10.83
2022-08-14T11:28:14.878Z,15.47
2022-08-14T11:30:54.239Z,12.13
2022-08-14T11:33:32.775Z,12.53
2022-08-14T11:36:01.913Z,17.60
2022-08-14T11:38:44.940Z,12.77
2022-08-14T11:41:17.266Z,17.43
2022-08-14T11:43:55.984Z,19.60
2022-08-14T11:46:29.825Z,15.40
2022-08-14T11:49:03.195Z,20.37
2022-08-14T11:51:35.976Z,23.20
2022-08-14T11:54:08.172Z,16.37
2022-08-14T11:56:37.332Z,18.13
2022-08-14T11:59:06.228Z,17.30
2022-08-14T12:01:38.056Z,22.97
2022-08-14T12:04:31.931Z,19.60
2022-08-14T12:07:01.200Z,18.23
2022-08-14T12:09:31.774Z,18.50
2022-08-14T12:11:59.227Z,18.33
2022-08-14T12:14:29.973Z,17.50
2022-08-14T12:17:13.243Z,20.80
2022-08-14T12:19:50.588Z,20.50
2022-08-14T12:22:29.713Z,17.93
2022-08-14T12:24:57.391Z,18.20
2022-08-14T12:27:51.752Z,18.00
2022-08-14T12:30:39.578Z,16.10
2022-08-14T12:33:24.027Z,17.77
2022-08-14T12:35:57.490Z,16.90
2022-08-14T12:38:44.375Z,16.13
2022-08-14T12:41:21.056Z,17.30
2022-08-14T12:43:59.482Z,13.40
2022-08-14T12:46:29.318Z,10.50
2022-08-14T12:49:02.584Z,11.27
2022-08-14T12:51:30.717Z,11.37
2022-08-14T12:54:00.091Z,11.23
2022-08-14T12:56:33.106Z,10.70
2022-08-14T12:59:04.698Z,11.53
2022-08-14T13:01:59.014Z,11.00
2022-08-14T13:04:23.287Z,11.13
2022-08-14T13:06:51.503Z,10.47
2022-08-14T13:09:23.344Z,11.70
2022-08-14T13:11:59.311Z,10.23
2022-08-14T13:14:44.953Z,12.03
2022-08-14T13:17:12.611Z,11.03
2022-08-14T13:19:40.824Z,13.10
2022-08-14T13:22:10.143Z,13.27
2022-08-14T13:24:48.164Z,14.60
2022-08-14T13:27:15.728Z,15.77
2022-08-14T13:29:47.351Z,15.57
2022-08-14T13:32:15.241Z,15.37
2022-08-14T13:34:46.017Z,20.10
2022-08-14T13:37:15.636Z,18.13
2022-08-14T13:39:57.045Z,16.67
2022-08-14T13:42:30.483Z,19.03
2022-08-14T13:45:01.112Z,18.80
2022-08-14T13:47:30.333Z,17.93
2022-08-14T13:50:04.729Z,17.20
2022-08-14T13:52:54.767Z,17.00
2022-08-14T13:55:25.579Z,13.47
2022-08-14T13:58:03.734Z,18.10
2022-08-14T14:00:53.082Z,14.20
2022-08-14T14:03:24.238Z,14.30
2022-08-14T14:05:56.009Z,19.03
2022-08-14T14:08:46.627Z,16.57
2022-08-14T14:11:15.942Z,16.03
2022-08-14T14:13:45.482Z,15.30
2022-08-14T14:16:15.050Z,15.20
2022-08-14T14:18:55.827Z,14.00
2022-08-14T14:21:28.666Z,13.30
2022-08-14T14:23:57.484Z,14.23
2022-08-14T14:26:26.892Z,14.63
2022-08-14T14:28:57.149Z,12.90
2022-08-14T14:31:31.114Z,15.70
2022-08-14T14:34:12.384Z,15.20
2022-08-14T14:36:52.457Z,12.93
2022-08-14T14:39:23.439Z,13.10
2022-08-14T14:41:56.402Z,13.20
2022-08-14T14:44:32.106Z,14.17
2022-08-14T14:46:59.573Z,15.30
2022-08-14T14:49:41.521Z,14.30
2022-08-14T14:52:27.379Z,16.67
2022-08-14T14:54:57.278Z,11.17
2022-08-14T14:57:35.774Z,11.73
2022-08-14T15:00:06.449Z,15.37
2022-08-14T15:02:44.185Z,11.67
2022-08-14T15:05:14.272Z,11.07
2022-08-14T15:07:42.946Z,12.53
2022-08-14T15:10:27.074Z,10.57
2022-08-14T15:13:00.257Z,13.10
2022-08-14T15:15:32.841Z,11.97
2022-08-14T15:18:00.069Z,11.20
2022-08-14T15:20:30.632Z,12.70
2022-08-14T15:23:00.993Z,12.27
2022-08-14T15:25:39.568Z,12.30
2022-08-14T15:28:12.773Z,13.47
2022-08-14T15:30:42.684Z,11.80
2022-08-14T15:33:10.897Z,13.07
2022-08-14T15:35:44.910Z,12.03
2022-08-14T15:38:13.785Z,12.27
2022-08-14T15:40:51.365Z,14.03
2022-08-14T15:43:27.186Z,13.13
2022-08-14T15:45:56.400Z,13.20
2022-08-14T15:48:23.641Z,12.73
2022-08-14T15:50:51.809Z,15.20
2022-08-14T15:53:22.381Z,13.10
2022-08-14T15:55:54.974Z,12.03
2022-08-14T15:58:25.871Z,11.77
2022-08-14T16:01:13.297Z,11.57
2022-08-14T16:03:42.490Z,11.83
2022-08-14T16:06:19.126Z,9.87
2022-08-14T16:08:58.667Z,12.43
2022-08-14T16:11:28.780Z,13.53
2022-08-14T16:14:00.904Z,11.30
2022-08-14T16:16:46.949Z,10.30
2022-08-14T16:19:19.357Z,10.47
2022-08-14T16:22:02.648Z,10.30
2022-08-14T16:25:00.059Z,13.73
2022-08-14T16:27:33.625Z,9.97
2022-08-14T16:30:04.149Z,9.00
2022-08-14T16:32:35.912Z,9.47
2022-08-14T16:35:20.568Z,8.70
2022-08-14T16:37:47.369Z,9.77
2022-08-14T16:40:17.223Z,9.10
2022-08-14T16:43:04.306Z,9.60
2022-08-14T16:45:32.288Z,9.57
2022-08-14T16:48:00.491Z,7.30
2022-08-14T16:50:40.564Z,8.20
2022-08-14T16:53:17.820Z,7.60
2022-08-14T16:55:50.886Z,7.57
2022-08-14T16:58:39.905Z,7.47
2022-08-14T17:01:24.936Z,6.90
2022-08-14T17:03:59.694Z,8.00
2022-08-14T17:06:48.299Z,7.77
2022-08-14T17:09:29.823Z,7.70
2022-08-14T17:12:00.032Z,7.00
2022-08-14T17:15:10.751Z,7.63
2022-08-14T17:17:40.798Z,8.73
2022-08-14T17:20:39.678Z,8.67
2022-08-14T17:23:00.165Z,7.50
2022-08-14T17:25:30.333Z,8.13
2022-08-14T17:28:52.427Z,6.40
2022-08-14T17:31:05.694Z,7.17
2022-08-14T17:33:44.349Z,6.47
2022-08-14T17:36:22.477Z,8.80
2022-08-14T17:39:02.708Z,7.23
2022-08-14T17:41:43.378Z,6.50
2022-08-14T17:44:21.966Z,6.57
2022-08-14T17:47:03.646Z,8.10
2022-08-14T17:49:33.539Z,7.70
2022-08-14T17:52:17.197Z,6.83
2022-08-14T17:54:52.767Z,7.67
2022-08-14T17:57:28.543Z,6.10
2022-08-14T17:59:56.438Z,6.77
2022-08-14T18:02:31.329Z,6.07
2022-08-14T18:05:03.024Z,8.23
2022-08-14T18:07:50.599Z,7.70
2022-08-14T18:10:51.828Z,7.67
2022-08-14T18:13:08.053Z,7.73
2022-08-14T18:15:39.248Z,8.53
2022-08-14T18:18:12.008Z,9.10
2022-08-14T18:21:42.321Z,7.97
2022-08-14T18:23:28.367Z,7.20
2022-08-14T18:25:56.847Z,8.43
2022-08-14T18:28:51.035Z,9.33
2022-08-14T18:31:20.179Z,8.10
2022-08-14T18:33:58.931Z,10.60
2022-08-14T18:36:46.558Z,9.53
2022-08-14T18:39:34.213Z,10.27
2022-08-14T18:42:23.646Z,9.83
2022-08-14T18:44:52.668Z,10.37
2022-08-14T18:47:30.468Z,7.97
2022-08-14T18:50:33.809Z,9.13
2022-08-14T18:53:10.750Z,7.73
2022-08-14T18:55:52.935Z,9.47
2022-08-14T18:58:31.113Z,9.53
2022-08-14T19:01:00.092Z,9.07
2022-08-14T19:03:39.449Z,8.77
2022-08-14T19:06:10.341Z,9.40
2022-08-14T19:08:54.815Z,9.20
2022-08-14T19:11:32.387Z,7.73
2022-08-14T19:14:05.249Z,8.50
2022-08-14T19:16:42.910Z,8.60
2022-08-14T19:19:17.242Z,9.10
2022-08-14T19:21:56.463Z,8.70
2022-08-14T19:24:43.941Z,10.37
2022-08-14T19:27:26.059Z,8.90
2022-08-14T19:30:20.354Z,9.50
2022-08-14T19:32:53.160Z,8.93
2022-08-14T19:35:48.796Z,10.20
2022-08-14T19:38:53.997Z,8.40
2022-08-14T19:41:29.498Z,8.97
2022-08-14T19:44:12.206Z,12.07
2022-08-14T19:47:01.361Z,10.20
2022-08-14T19:50:08.537Z,9.03
2022-08-14T19:52:29.766Z,9.17
2022-08-14T19:54:58.383Z,9.20
2022-08-14T19:57:34.480Z,9.60
2022-08-14T20:00:28.204Z,9.50
2022-08-14T20:03:11.238Z,9.40
2022-08-14T20:05:46.335Z,10.07
2022-08-14T20:10:59.556Z,10.20
2022-08-14T20:11:21.109Z,8.70
2022-08-14T20:14:09.415Z,10.07
2022-08-14T20:16:42.072Z,8.63
2022-08-14T20:19:21.469Z,10.10
2022-08-14T20:22:34.801Z,15.80
2022-08-14T20:24:50.136Z,9.73
2022-08-14T20:27:33.913Z,10.20
2022-08-14T20:30:35.935Z,9.27
2022-08-14T20:33:10.664Z,11.00
2022-08-14T20:35:47.599Z,10.30
2022-08-14T20:38:29.016Z,10.93
2022-08-14T20:41:06.803Z,10.60
2022-08-14T20:44:00.699Z,9.40
2022-08-14T20:46:38.887Z,11.73
2022-08-14T20:49:08.556Z,12.23
2022-08-14T20:51:54.733Z,14.03
2022-08-14T20:54:34.707Z,9.53
2022-08-14T20:57:13.907Z,13.30
2022-08-14T20:59:57.359Z,9.30
2022-08-14T21:02:46.906Z,13.37
2022-08-14T21:05:22.444Z,11.07
2022-08-14T21:08:08.128Z,11.40
2022-08-14T21:10:49.112Z,10.30
2022-08-14T21:14:08.694Z,10.07
2022-08-14T21:16:30.820Z,11.77
2022-08-14T21:18:58.287Z,11.03
2022-08-14T21:21:40.499Z,16.73
2022-08-14T21:24:40.101Z,13.50
2022-08-14T21:27:04.340Z,13.60
2022-08-14T21:29:49.762Z,15.70
2022-08-14T21:32:33.754Z,13.10
2022-08-14T21:35:04.055Z,11.43
2022-08-14T21:37:44.096Z,12.53
2022-08-14T21:40:39.902Z,11.83
2022-08-14T21:42:59.456Z,12.67
2022-08-14T21:45:26.592Z,13.00
2022-08-14T21:47:56.446Z,12.67
2022-08-14T21:51:00.388Z,14.53
2022-08-14T21:53:14.445Z,11.60
2022-08-14T21:55:43.413Z,14.43
2022-08-14T21:58:51.932Z,17.13
2022-08-14T22:00:57.943Z,13.37
2022-08-14T22:03:26.319Z,13.00
2022-08-14T22:06:04.119Z,16.00
2022-08-14T22:08:30.935Z,13.43
2022-08-14T22:11:00.508Z,12.13
2022-08-14T22:13:32.281Z,12.30
2022-08-14T22:16:02.281Z,12.30
2022-08-14T22:18:30.364Z,12.20
2022-08-14T22:20:58.122Z,12.10
2022-08-14T22:23:26.538Z,11.90
2022-08-14T22:25:55.527Z,12.83
2022-08-14T22:28:32.470Z,12.73
2022-08-14T22:31:03.724Z,15.90
2022-08-14T22:33:39.418Z,16.60
2022-08-14T22:36:26.345Z,14.43
2022-08-14T22:38:54.957Z,11.47
2022-08-14T22:41:28.325Z,13.03
2022-08-14T22:44:04.637Z,12.90
2022-08-14T22:46:33.704Z,13.23
2022-08-14T22:49:16.726Z,17.60
2022-08-14T22:51:49.371Z,13.50
2022-08-14T22:54:51.405Z,12.60
2022-08-14T22:57:05.688Z,14.87
2022-08-14T22:59:39.010Z,13.90
2022-08-14T23:02:12.648Z,16.07
2022-08-14T23:04:55.269Z,12.87
2022-08-14T23:07:24.592Z,12.50
2022-08-14T23:09:57.829Z,15.43
2022-08-14T23:12:54.562Z,13.40
2022-08-14T23:15:23.991Z,13.97
2022-08-14T23:17:52.182Z,13.23
2022-08-14T23:20:22.261Z,17.73
2022-08-14T23:22:53.833Z,16.77
2022-08-14T23:25:57.462Z,16.07
2022-08-14T23:28:34.909Z,15.43
2022-08-14T23:31:05.531Z,13.67
2022-08-14T23:33:34.581Z,13.00
2022-08-14T23:36:04.658Z,15.10
2022-08-14T23:38:52.386Z,12.83
2022-08-14T23:41:20.911Z,19.50
2022-08-14T23:43:51.217Z,18.43
2022-08-14T23:46:21.112Z,14.20
2022-08-14T23:48:49.179Z,14.37
2022-08-14T23:51:20.027Z,14.60
2022-08-14T23:53:51.427Z,15.17
2022-08-14T23:56:31.832Z,16.27
2022-08-14T23:59:01.394Z,15.17
